This is the latest recevied weather packets stored in our database for station/object KI6SYE. If no packets are shown the sender has not sent any weather packets the latest 1 day(s).
| Time | Temp. | Humidity | Pressure | Rain* | Wind** | Luminosity | Snow |
|---|---|---|---|---|---|---|---|
| 1777990064 | 13.89° C | 86% | 1013.7 hPa | 0 mm | 1.79 m/s, 261° | 53 W/m² | - |
| 1777989761 | 13.89° C | 86% | 1013.7 hPa | 0 mm | 2.68 m/s, 355° | 45 W/m² | - |
| 1777989457 | 13.89° C | 87% | 1013.6 hPa | 0 mm | 1.34 m/s, 49° | 37 W/m² | - |
| 1777989154 | 13.89° C | 87% | 1013.5 hPa | 0 mm | 2.24 m/s, 312° | 32 W/m² | - |
| 1777988850 | 13.89° C | 87% | 1013.4 hPa | 0 mm | 2.24 m/s, 278° | 31 W/m² | - |
| 1777988547 | 13.89° C | 87% | 1013.7 hPa | 0 mm | 1.34 m/s, 289° | 28 W/m² | - |
| 1777988244 | 13.89° C | 86% | 1013.4 hPa | 0 mm | 2.24 m/s, 289° | 20 W/m² | - |
| 1777987941 | 13.89° C | 86% | 1013.5 hPa | 0 mm | 1.79 m/s, 330° | 17 W/m² | - |
| 1777987636 | 13.89° C | 86% | 1013.3 hPa | 0 mm | 2.24 m/s, 321° | 13 W/m² | - |
| 1777987334 | 13.89° C | 86% | 1013.6 hPa | 0 mm | 1.79 m/s, 277° | 9 W/m² | - |
| 1777987031 | 13.89° C | 86% | 1013.5 hPa | 0 mm | 1.79 m/s, 272° | 8 W/m² | - |
| 1777986729 | 13.89° C | 86% | 1013.2 hPa | 0 mm | 2.68 m/s, 286° | 6 W/m² | - |
| 1777986426 | 13.89° C | 85% | 1013.5 hPa | 0 mm | 2.24 m/s, 276° | 4 W/m² | - |
| 1777986124 | 13.89° C | 85% | 1013.6 hPa | 0 mm | 2.24 m/s, 295° | 2 W/m² | - |
| 1777985820 | 13.89° C | 85% | 1013.3 hPa | 0 mm | 1.79 m/s, 280° | 1 W/m² | - |
| 1777985518 | 13.89° C | 85% | 1013.4 hPa | 0 mm | 2.24 m/s, 240° | 1 W/m² | - |
| 1777985214 | 13.89° C | 85% | 1013.5 hPa | 0 mm | 2.68 m/s, 236° | 0 W/m² | - |
| 1777984911 | 13.89° C | 85% | 1013.6 hPa | 0 mm | 1.79 m/s, 339° | 0 W/m² | - |
| 1777984607 | 13.89° C | 85% | 1013.6 hPa | 0 mm | 2.68 m/s, 299° | 0 W/m² | - |
| 1777984304 | 13.89° C | 85% | 1013.3 hPa | 0 mm | 4.02 m/s, 305° | 0 W/m² | - |
| 1777984000 | 13.89° C | 85% | 1013.5 hPa | 0 mm | 1.34 m/s, 275° | 0 W/m² | - |
| 1777983698 | 13.89° C | 85% | 1013.4 hPa | 0 mm | 2.24 m/s, 301° | 0 W/m² | - |
| 1777983394 | 13.89° C | 85% | 1013.3 hPa | 0 mm | 2.24 m/s, 220° | 0 W/m² | - |
| 1777983091 | 13.89° C | 84% | 1013.4 hPa | 0 mm | 1.79 m/s, 332° | 0 W/m² | - |
| 1777982787 | 13.89° C | 84% | 1013.5 hPa | 0 mm | 1.79 m/s, 292° | 0 W/m² | - |
* Rain latest hour (hover to see other rain measurements)
** Current wind speed in m/s (hover to see current wind gust speed)